createdAt,value
2017-10-31T00:00:05.933Z,98.54
2017-10-31T00:01:16.240Z,99.2
2017-10-31T00:02:26.189Z,99.01
2017-10-31T00:03:36.162Z,98.92
2017-10-31T00:04:46.141Z,99.11
2017-10-31T00:05:56.674Z,99.68
2017-10-31T00:07:06.968Z,99.68
2017-10-31T00:08:16.932Z,99.77
2017-10-31T00:09:26.937Z,99.58
2017-10-31T00:10:36.892Z,99.39
2017-10-31T00:11:47.120Z,99.99
2017-10-31T00:12:57.436Z,99.99
2017-10-31T00:14:07.723Z,99.99
2017-10-31T00:15:18.015Z,99.99
2017-10-31T00:16:27.996Z,99.99
2017-10-31T00:17:37.560Z,99.99
2017-10-31T00:18:47.854Z,99.99
2017-10-31T00:19:57.822Z,99.99
2017-10-31T00:21:08.111Z,99.99
2017-10-31T00:22:18.406Z,99.99
2017-10-31T00:23:29.049Z,99.99
2017-10-31T00:24:39.012Z,99.99
2017-10-31T00:25:49.300Z,99.99
2017-10-31T00:26:59.263Z,99.99
2017-10-31T00:28:09.232Z,99.99
2017-10-31T00:29:19.776Z,99.99
2017-10-31T00:30:30.073Z,99.99
2017-10-31T00:31:40.374Z,99.99
2017-10-31T00:32:50.360Z,99.99
2017-10-31T00:34:00.673Z,99.99
2017-10-31T00:35:10.892Z,99.99
2017-10-31T00:36:21.189Z,99.99
2017-10-31T00:37:31.480Z,99.99
2017-10-31T00:38:41.457Z,99.99
2017-10-31T00:39:51.435Z,99.99
2017-10-31T00:41:01.330Z,99.99
2017-10-31T00:42:10.968Z,99.99
2017-10-31T00:43:21.271Z,99.99
2017-10-31T00:44:31.561Z,99.99
2017-10-31T00:45:41.865Z,99.99
2017-10-31T00:46:52.403Z,99.99
2017-10-31T00:48:02.378Z,99.99
2017-10-31T00:49:12.681Z,99.99
2017-10-31T00:50:22.669Z,99.99
2017-10-31T00:51:32.974Z,99.99
2017-10-31T00:52:43.521Z,99.99
2017-10-31T00:53:53.484Z,99.99
2017-10-31T00:55:03.452Z,99.99
2017-10-31T00:56:13.437Z,99.99
2017-10-31T00:57:23.734Z,99.99
2017-10-31T00:58:33.939Z,99.99
2017-10-31T00:59:44.234Z,99.99
2017-10-31T01:00:54.536Z,99.99
2017-10-31T01:02:04.844Z,99.99
2017-10-31T01:03:15.131Z,99.99
2017-10-31T01:04:25.677Z,99.99
2017-10-31T01:05:35.981Z,99.99
2017-10-31T01:06:46.276Z,99.99
2017-10-31T01:07:56.257Z,99.99
2017-10-31T01:09:06.535Z,99.99
2017-10-31T01:10:17.105Z,99.99
2017-10-31T01:11:27.391Z,99.99
2017-10-31T01:12:37.035Z,99.99
2017-10-31T01:13:47.363Z,99.99
2017-10-31T01:14:57.650Z,99.99
2017-10-31T01:16:07.865Z,99.99
2017-10-31T01:17:18.166Z,99.99
2017-10-31T01:18:28.468Z,99.99
2017-10-31T01:19:38.747Z,99.99
2017-10-31T01:20:49.041Z,99.99
2017-10-31T01:21:59.586Z,99.99
2017-10-31T01:23:09.887Z,99.99
2017-10-31T01:24:20.184Z,99.99
2017-10-31T01:25:30.148Z,99.99
2017-10-31T01:26:40.445Z,99.99
2017-10-31T01:27:50.983Z,99.99
2017-10-31T01:29:00.949Z,99.99
2017-10-31T01:30:11.280Z,99.99
2017-10-31T01:31:21.262Z,99.99
2017-10-31T01:32:31.555Z,99.99
2017-10-31T01:33:42.095Z,99.99
2017-10-31T01:34:52.384Z,99.99
2017-10-31T01:36:02.682Z,99.99
2017-10-31T01:37:12.966Z,99.99
2017-10-31T01:38:22.955Z,99.99
2017-10-31T01:39:33.488Z,99.99
2017-10-31T01:40:43.775Z,99.99
2017-10-31T01:41:54.079Z,99.99
2017-10-31T01:43:04.368Z,99.99
2017-10-31T01:44:14.343Z,99.99
2017-10-31T01:45:24.577Z,99.99
2017-10-31T01:46:34.872Z,99.99
2017-10-31T01:47:44.838Z,99.99
2017-10-31T01:48:55.126Z,99.99
2017-10-31T01:50:05.413Z,99.99
2017-10-31T01:51:15.963Z,99.99
2017-10-31T01:52:26.259Z,99.99
2017-10-31T01:53:36.224Z,99.99
2017-10-31T01:54:46.517Z,99.99
2017-10-31T01:55:56.817Z,99.99
2017-10-31T01:57:07.029Z,99.99
2017-10-31T01:58:17.316Z,99.99
2017-10-31T01:59:27.613Z,99.99
2017-10-31T02:00:37.584Z,99.99
2017-10-31T02:01:47.871Z,99.99
2017-10-31T02:02:58.081Z,99.99
2017-10-31T02:04:08.368Z,99.99
2017-10-31T02:05:18.671Z,99.99
2017-10-31T02:06:28.630Z,99.99
2017-10-31T02:07:38.294Z,99.99
2017-10-31T02:08:48.825Z,99.99
2017-10-31T02:09:58.798Z,99.99
2017-10-31T02:11:09.085Z,99.99
2017-10-31T02:12:18.717Z,99.99
2017-10-31T02:13:28.675Z,99.99
2017-10-31T02:14:39.235Z,99.99
2017-10-31T02:15:49.528Z,99.99
2017-10-31T02:16:59.488Z,99.99
2017-10-31T02:18:09.443Z,99.99
2017-10-31T02:19:19.076Z,99.99
2017-10-31T02:20:29.631Z,99.99
2017-10-31T02:21:39.591Z,99.99
2017-10-31T02:22:49.879Z,99.99
2017-10-31T02:23:59.844Z,99.99
2017-10-31T02:25:10.161Z,99.99
2017-10-31T02:26:20.371Z,99.99
2017-10-31T02:27:30.342Z,99.99
2017-10-31T02:28:39.978Z,99.99
2017-10-31T02:29:49.956Z,99.99
2017-10-31T02:31:00.257Z,99.99
2017-10-31T02:32:10.809Z,99.99
2017-10-31T02:33:21.103Z,99.99
2017-10-31T02:34:31.389Z,99.99
2017-10-31T02:35:41.713Z,99.99
2017-10-31T02:36:52.013Z,99.99
2017-10-31T02:38:02.219Z,99.99
2017-10-31T02:39:12.517Z,99.99
2017-10-31T02:40:22.493Z,99.99
2017-10-31T02:41:32.464Z,99.99
2017-10-31T02:42:42.435Z,99.99
2017-10-31T02:43:52.980Z,99.99
2017-10-31T02:45:03.277Z,99.99
2017-10-31T02:46:13.593Z,99.99
2017-10-31T02:47:23.879Z,99.99
2017-10-31T02:48:34.175Z,99.99
2017-10-31T02:49:44.766Z,99.99
2017-10-31T02:50:55.056Z,99.99
2017-10-31T02:52:05.018Z,99.99
2017-10-31T02:53:14.979Z,99.99
2017-10-31T02:54:24.959Z,99.99
2017-10-31T02:55:35.180Z,99.99
2017-10-31T02:56:45.495Z,99.99
2017-10-31T02:57:55.790Z,99.99
2017-10-31T02:59:06.103Z,99.99
2017-10-31T03:00:16.405Z,99.99
2017-10-31T03:01:26.644Z,99.99
2017-10-31T03:02:36.936Z,99.99
2017-10-31T03:03:46.575Z,99.99
2017-10-31T03:04:56.552Z,99.99
2017-10-31T03:06:06.854Z,99.99
2017-10-31T03:07:17.387Z,99.99
2017-10-31T03:08:27.674Z,99.99
2017-10-31T03:09:37.981Z,99.99
2017-10-31T03:10:48.271Z,99.99
2017-10-31T03:11:58.259Z,99.99
2017-10-31T03:13:08.809Z,99.99
2017-10-31T03:14:19.095Z,99.99
2017-10-31T03:15:29.068Z,99.99
2017-10-31T03:16:39.028Z,99.99
2017-10-31T03:17:49.310Z,99.99
2017-10-31T03:18:59.852Z,99.99
2017-10-31T03:20:09.815Z,99.99
2017-10-31T03:21:20.107Z,99.99
2017-10-31T03:22:30.430Z,99.99
2017-10-31T03:23:40.710Z,99.99
2017-10-31T03:24:50.965Z,99.99
2017-10-31T03:26:01.261Z,99.99
2017-10-31T03:27:11.236Z,99.99
2017-10-31T03:28:21.534Z,99.99
2017-10-31T03:29:31.825Z,99.99
2017-10-31T03:30:42.376Z,99.99
2017-10-31T03:31:52.346Z,99.99
2017-10-31T03:33:02.633Z,99.99
2017-10-31T03:34:12.918Z,99.99
2017-10-31T03:35:23.216Z,99.99
2017-10-31T03:36:33.758Z,99.99
2017-10-31T03:37:44.069Z,99.99
2017-10-31T03:38:54.368Z,99.99
2017-10-31T03:40:04.664Z,99.99
2017-10-31T03:41:14.951Z,99.99
2017-10-31T03:42:25.519Z,99.99
2017-10-31T03:43:35.809Z,99.99
2017-10-31T03:44:45.780Z,99.99
2017-10-31T03:45:56.070Z,99.99
2017-10-31T03:47:06.377Z,99.99
2017-10-31T03:48:16.918Z,99.99
2017-10-31T03:49:27.215Z,99.99
2017-10-31T03:50:37.508Z,99.99
2017-10-31T03:51:47.813Z,99.99
2017-10-31T03:52:58.109Z,99.99
2017-10-31T03:54:08.656Z,99.99
2017-10-31T03:55:18.943Z,99.99
2017-10-31T03:56:29.247Z,99.99
2017-10-31T03:57:39.213Z,99.99
2017-10-31T03:58:49.186Z,99.99
2017-10-31T03:59:59.733Z,99.99
2017-10-31T04:01:09.693Z,99.99
2017-10-31T04:02:19.971Z,99.99
2017-10-31T04:03:30.265Z,99.99
2017-10-31T04:04:40.565Z,99.99
2017-10-31T04:05:50.772Z,99.99
2017-10-31T04:07:00.728Z,99.99
2017-10-31T04:08:11.036Z,99.99
2017-10-31T04:09:21.319Z,99.99
2017-10-31T04:10:31.605Z,99.99
2017-10-31T04:11:41.814Z,99.99
2017-10-31T04:12:51.781Z,99.99
2017-10-31T04:14:02.077Z,99.99
2017-10-31T04:15:12.029Z,99.99
2017-10-31T04:16:21.984Z,99.99
2017-10-31T04:17:32.525Z,99.99
2017-10-31T04:18:42.484Z,99.99
2017-10-31T04:19:52.757Z,99.99
2017-10-31T04:21:03.049Z,99.99
2017-10-31T04:22:13.335Z,99.99
2017-10-31T04:23:23.239Z,99.99
2017-10-31T04:24:33.533Z,99.99
2017-10-31T04:25:43.495Z,99.99
2017-10-31T04:26:53.783Z,99.99
2017-10-31T04:28:03.739Z,99.99
2017-10-31T04:29:13.950Z,99.99
2017-10-31T04:30:24.232Z,99.99
2017-10-31T04:31:34.512Z,99.99
2017-10-31T04:32:44.493Z,99.99
2017-10-31T04:33:54.790Z,99.99
2017-10-31T04:35:05.380Z,99.99
2017-10-31T04:36:15.023Z,99.99
2017-10-31T04:37:24.663Z,99.99
2017-10-31T04:38:34.956Z,99.99
2017-10-31T04:39:45.241Z,99.99
2017-10-31T04:40:55.457Z,99.99
2017-10-31T04:42:05.416Z,99.99
2017-10-31T04:43:15.370Z,99.99
2017-10-31T04:44:25.014Z,99.99
2017-10-31T04:45:35.303Z,99.99
2017-10-31T04:46:45.835Z,99.99
2017-10-31T04:47:56.133Z,99.99
2017-10-31T04:49:06.421Z,99.99
2017-10-31T04:50:16.053Z,99.99
2017-10-31T04:51:26.330Z,99.99
2017-10-31T04:52:36.867Z,99.99
2017-10-31T04:53:46.829Z,99.99
2017-10-31T04:54:56.793Z,99.99
2017-10-31T04:56:07.078Z,99.99
2017-10-31T04:57:17.367Z,99.99
2017-10-31T04:58:27.898Z,99.99
2017-10-31T04:59:38.182Z,99.99
2017-10-31T05:00:48.464Z,99.99
2017-10-31T05:01:58.766Z,99.99
2017-10-31T05:03:09.053Z,99.99
2017-10-31T05:04:19.266Z,99.99
2017-10-31T05:05:29.552Z,99.99
2017-10-31T05:06:39.843Z,99.99
2017-10-31T05:07:50.141Z,99.99
2017-10-31T05:09:00.109Z,99.99
2017-10-31T05:10:10.665Z,99.99
2017-10-31T05:11:20.300Z,99.99
2017-10-31T05:12:30.270Z,99.99
2017-10-31T05:13:40.560Z,99.99
2017-10-31T05:14:50.840Z,99.99
2017-10-31T05:16:00.769Z,99.99
2017-10-31T05:17:10.084Z,99.99
2017-10-31T05:18:20.367Z,99.99
2017-10-31T05:19:30.659Z,99.99
2017-10-31T05:20:40.960Z,99.99
2017-10-31T05:21:51.516Z,99.99
2017-10-31T05:23:01.474Z,99.99
2017-10-31T05:24:11.422Z,99.99
2017-10-31T05:25:21.713Z,99.99
2017-10-31T05:26:31.667Z,99.99
2017-10-31T05:27:42.206Z,99.99
2017-10-31T05:28:52.493Z,99.99
2017-10-31T05:30:02.778Z,99.99
2017-10-31T05:31:12.752Z,99.99
2017-10-31T05:32:23.044Z,99.99
2017-10-31T05:33:33.585Z,99.99
2017-10-31T05:34:43.880Z,99.99
2017-10-31T05:35:53.842Z,99.99
2017-10-31T05:37:04.127Z,99.99
2017-10-31T05:38:14.422Z,99.99
2017-10-31T05:39:24.958Z,99.99
2017-10-31T05:40:35.248Z,99.99
2017-10-31T05:41:45.535Z,99.99
2017-10-31T05:42:55.823Z,99.99
2017-10-31T05:44:06.126Z,99.99
2017-10-31T05:45:16.665Z,99.99
2017-10-31T05:46:26.618Z,99.99
2017-10-31T05:47:36.571Z,99.99
2017-10-31T05:48:46.205Z,99.99
2017-10-31T05:49:56.184Z,99.99
2017-10-31T05:51:06.743Z,99.99
2017-10-31T05:52:17.027Z,99.99
2017-10-31T05:53:26.996Z,99.99
2017-10-31T05:54:37.282Z,99.99
2017-10-31T05:55:47.574Z,99.99
2017-10-31T05:56:57.772Z,99.99
2017-10-31T05:58:07.400Z,99.99
2017-10-31T05:59:17.690Z,99.99
2017-10-31T06:00:27.987Z,99.99
2017-10-31T06:01:38.268Z,99.99
2017-10-31T06:02:48.813Z,99.99
2017-10-31T06:03:59.219Z,99.99
2017-10-31T06:05:09.516Z,99.99
2017-10-31T06:06:19.819Z,99.99
2017-10-31T06:07:29.471Z,99.99
2017-10-31T06:08:40.013Z,99.99
2017-10-31T06:09:49.994Z,99.99
2017-10-31T06:11:00.280Z,99.99
2017-10-31T06:12:10.585Z,99.99
2017-10-31T06:13:20.235Z,99.99
2017-10-31T06:14:30.776Z,99.99
2017-10-31T06:15:41.088Z,99.99
2017-10-31T06:16:51.386Z,99.99
2017-10-31T06:18:01.364Z,99.99
2017-10-31T06:19:11.681Z,99.99
2017-10-31T06:20:22.232Z,99.99
2017-10-31T06:21:32.532Z,99.99
2017-10-31T06:22:42.167Z,99.99
2017-10-31T06:23:52.128Z,99.99
2017-10-31T06:25:02.422Z,99.99
2017-10-31T06:26:12.960Z,99.99
2017-10-31T06:27:23.245Z,99.99
2017-10-31T06:28:33.530Z,99.99
2017-10-31T06:29:43.823Z,99.99
2017-10-31T06:30:53.465Z,99.99
2017-10-31T06:32:04.004Z,99.99
2017-10-31T06:33:13.964Z,99.99
2017-10-31T06:34:23.931Z,99.99
2017-10-31T06:35:33.894Z,99.99
2017-10-31T06:36:44.209Z,99.99
2017-10-31T06:37:54.444Z,99.99
2017-10-31T06:39:04.080Z,99.99
2017-10-31T06:40:13.709Z,99.99
2017-10-31T06:41:24.000Z,99.99
2017-10-31T06:42:33.971Z,99.99
2017-10-31T06:43:44.510Z,99.99
2017-10-31T06:44:54.480Z,99.99
2017-10-31T06:46:04.775Z,99.99
2017-10-31T06:47:15.063Z,99.99
2017-10-31T06:48:25.368Z,99.99
2017-10-31T06:49:35.318Z,99.99
2017-10-31T06:50:45.611Z,99.99
2017-10-31T06:51:55.892Z,99.99
2017-10-31T06:53:05.854Z,99.99
2017-10-31T06:54:16.151Z,99.99
2017-10-31T06:55:26.743Z,99.99
2017-10-31T06:56:36.717Z,99.99
2017-10-31T06:57:46.367Z,99.99
2017-10-31T06:58:56.662Z,99.99
2017-10-31T07:00:06.959Z,99.99
2017-10-31T07:01:17.494Z,99.99
2017-10-31T07:02:27.485Z,99.99
2017-10-31T07:03:37.457Z,99.99
2017-10-31T07:04:47.752Z,99.99
2017-10-31T07:05:58.032Z,99.99
2017-10-31T07:07:08.620Z,99.99
2017-10-31T07:08:18.583Z,99.99
2017-10-31T07:09:28.868Z,99.99
2017-10-31T07:10:39.155Z,99.99
2017-10-31T07:11:49.453Z,99.99
2017-10-31T07:12:59.988Z,99.99
2017-10-31T07:14:10.298Z,99.99
2017-10-31T07:15:20.608Z,99.99
2017-10-31T07:16:30.893Z,99.99
2017-10-31T07:17:41.188Z,99.99
2017-10-31T07:18:51.725Z,99.99
2017-10-31T07:20:01.378Z,99.99
2017-10-31T07:21:11.669Z,99.99
2017-10-31T07:22:21.955Z,99.99
2017-10-31T07:23:31.920Z,99.99
2017-10-31T07:24:42.152Z,99.99
2017-10-31T07:25:52.127Z,99.99
2017-10-31T07:27:01.764Z,99.99
2017-10-31T07:28:11.742Z,99.99
2017-10-31T07:29:21.711Z,99.99
2017-10-31T07:30:32.265Z,99.99
2017-10-31T07:31:42.559Z,99.99
2017-10-31T07:32:52.526Z,99.99
2017-10-31T07:34:02.819Z,99.99
2017-10-31T07:35:13.119Z,99.99
2017-10-31T07:36:23.688Z,99.99
2017-10-31T07:37:33.654Z,99.99
2017-10-31T07:38:43.943Z,99.99
2017-10-31T07:39:53.583Z,99.99
2017-10-31T07:41:03.564Z,99.99
2017-10-31T07:42:13.781Z,99.99
2017-10-31T07:43:24.099Z,99.99
2017-10-31T07:44:34.396Z,99.99
2017-10-31T07:45:44.694Z,99.99
2017-10-31T07:46:54.991Z,99.99
2017-10-31T07:48:05.210Z,99.99
2017-10-31T07:49:15.517Z,99.99
2017-10-31T07:50:25.845Z,99.99
2017-10-31T07:51:36.146Z,99.99
2017-10-31T07:52:46.433Z,99.99
2017-10-31T07:53:56.654Z,99.99
2017-10-31T07:55:06.949Z,99.99
2017-10-31T07:56:17.242Z,99.99
2017-10-31T07:57:27.208Z,99.99
2017-10-31T07:58:37.198Z,99.99
2017-10-31T07:59:47.405Z,99.99
2017-10-31T08:00:57.368Z,99.99
2017-10-31T08:02:07.896Z,99.99
2017-10-31T08:03:17.529Z,99.99
2017-10-31T08:04:27.499Z,99.99
2017-10-31T08:05:38.040Z,99.99
2017-10-31T08:06:47.704Z,99.99
2017-10-31T08:07:57.997Z,99.99
2017-10-31T08:09:07.974Z,99.99
2017-10-31T08:10:17.932Z,99.99
2017-10-31T08:11:28.470Z,99.99
2017-10-31T08:12:38.767Z,99.99
2017-10-31T08:13:48.733Z,99.99
2017-10-31T08:14:59.043Z,99.99
2017-10-31T08:16:09.019Z,99.99
2017-10-31T08:17:19.556Z,99.99
2017-10-31T08:18:29.860Z,99.99
2017-10-31T08:19:40.158Z,99.99
2017-10-31T08:20:50.117Z,99.99
2017-10-31T08:22:00.412Z,99.99
2017-10-31T08:23:10.632Z,99.99
2017-10-31T08:24:20.932Z,99.99
2017-10-31T08:25:31.223Z,99.99
2017-10-31T08:26:41.514Z,99.99
2017-10-31T08:27:51.499Z,99.99
2017-10-31T08:29:02.026Z,99.99
2017-10-31T08:30:12.001Z,99.99
2017-10-31T08:31:22.322Z,99.99
2017-10-31T08:32:32.617Z,99.99
2017-10-31T08:33:42.901Z,99.99
2017-10-31T08:34:53.142Z,99.99
2017-10-31T08:36:03.106Z,99.99
2017-10-31T08:37:13.077Z,99.99
2017-10-31T08:38:23.371Z,99.99
2017-10-31T08:39:33.660Z,99.99
2017-10-31T08:40:44.214Z,99.99
2017-10-31T08:41:54.186Z,99.99
2017-10-31T08:43:04.157Z,99.99
2017-10-31T08:44:14.125Z,99.99
2017-10-31T08:45:24.100Z,99.99
2017-10-31T08:46:34.653Z,99.99
2017-10-31T08:47:44.942Z,99.99
2017-10-31T08:48:55.653Z,99.99
2017-10-31T08:50:05.941Z,99.99
2017-10-31T08:51:16.233Z,99.99
2017-10-31T08:52:26.461Z,99.99
2017-10-31T08:53:36.760Z,99.99
2017-10-31T08:54:47.071Z,99.99
2017-10-31T08:55:56.761Z,99.99
2017-10-31T08:57:06.736Z,99.99
2017-10-31T08:58:17.006Z,99.99
2017-10-31T08:59:26.962Z,99.99
2017-10-31T09:00:37.263Z,99.99
2017-10-31T09:01:47.547Z,99.99
2017-10-31T09:02:57.841Z,99.99
2017-10-31T09:04:08.416Z,99.99
2017-10-31T09:05:18.703Z,99.99
2017-10-31T09:06:29.010Z,99.99
2017-10-31T09:07:39.300Z,99.99
2017-10-31T09:08:49.610Z,99.99
2017-10-31T09:10:00.221Z,99.99
2017-10-31T09:11:10.525Z,99.99
2017-10-31T09:12:20.824Z,99.99
2017-10-31T09:13:31.124Z,99.99
2017-10-31T09:14:41.417Z,99.99
2017-10-31T09:15:51.978Z,99.99
2017-10-31T09:17:02.282Z,99.99
2017-10-31T09:18:12.599Z,99.99
2017-10-31T09:19:22.570Z,99.99
2017-10-31T09:20:32.863Z,99.99
2017-10-31T09:21:43.415Z,99.99
2017-10-31T09:22:53.711Z,99.99
2017-10-31T09:24:04.030Z,99.99
2017-10-31T09:25:14.328Z,99.99
2017-10-31T09:26:24.622Z,99.99
2017-10-31T09:27:35.155Z,99.99
2017-10-31T09:28:45.448Z,99.99
2017-10-31T09:29:55.424Z,99.99
2017-10-31T09:31:05.074Z,99.99
2017-10-31T09:32:15.391Z,99.99
2017-10-31T09:33:25.944Z,99.99
2017-10-31T09:34:35.619Z,99.99
2017-10-31T09:35:45.936Z,99.99
2017-10-31T09:36:55.894Z,99.99
2017-10-31T09:38:06.189Z,99.99
2017-10-31T09:39:16.741Z,99.99
2017-10-31T09:40:26.718Z,99.99
2017-10-31T09:41:36.704Z,99.99
2017-10-31T09:42:46.683Z,99.99
2017-10-31T09:43:56.662Z,99.99
2017-10-31T09:45:07.208Z,99.99
2017-10-31T09:46:16.542Z,99.99
2017-10-31T09:47:26.844Z,99.99
2017-10-31T09:48:36.809Z,99.99
2017-10-31T09:49:47.104Z,99.99
2017-10-31T09:50:57.344Z,99.99
2017-10-31T09:52:07.631Z,99.99
2017-10-31T09:53:17.929Z,99.99
2017-10-31T09:54:28.216Z,99.99
2017-10-31T09:55:38.189Z,99.99
2017-10-31T09:56:48.763Z,99.99
2017-10-31T09:57:59.068Z,99.99
2017-10-31T09:59:09.390Z,99.99
2017-10-31T10:00:18.707Z,99.99
2017-10-31T10:01:28.347Z,99.99
2017-10-31T10:02:38.893Z,99.99
2017-10-31T10:03:48.877Z,99.99
2017-10-31T10:04:59.170Z,99.99
2017-10-31T10:06:09.468Z,99.99
2017-10-31T10:07:19.449Z,99.99
2017-10-31T10:08:30.005Z,99.99
2017-10-31T10:09:40.306Z,99.99
2017-10-31T10:10:50.280Z,99.99
2017-10-31T10:12:00.248Z,99.99
2017-10-31T10:13:10.225Z,99.99
2017-10-31T10:14:20.777Z,99.99
2017-10-31T10:15:30.751Z,99.99
2017-10-31T10:16:40.393Z,99.99
2017-10-31T10:17:50.369Z,99.99
2017-10-31T10:19:00.343Z,99.99
2017-10-31T10:20:10.925Z,99.99
2017-10-31T10:21:21.244Z,99.99
2017-10-31T10:22:31.562Z,99.99
2017-10-31T10:23:41.867Z,99.99
2017-10-31T10:24:51.871Z,99.99
2017-10-31T10:26:02.437Z,99.99
2017-10-31T10:27:12.395Z,99.99
2017-10-31T10:28:22.720Z,99.99
2017-10-31T10:29:32.704Z,99.99
2017-10-31T10:30:42.688Z,99.99
2017-10-31T10:31:52.904Z,99.99
2017-10-31T10:33:03.212Z,99.99
2017-10-31T10:34:13.216Z,99.99
2017-10-31T10:35:23.522Z,99.99
2017-10-31T10:36:33.839Z,99.99
2017-10-31T10:37:44.462Z,99.99
2017-10-31T10:38:54.119Z,99.99
2017-10-31T10:40:04.423Z,99.99
2017-10-31T10:41:13.734Z,99.99
2017-10-31T10:42:24.031Z,99.99
2017-10-31T10:43:34.283Z,99.99
2017-10-31T10:44:44.258Z,99.99
2017-10-31T10:45:53.923Z,99.99
2017-10-31T10:47:03.911Z,99.99
2017-10-31T10:48:13.550Z,99.99
2017-10-31T10:49:24.144Z,99.99
2017-10-31T10:50:34.444Z,99.99
2017-10-31T10:51:44.751Z,99.99
2017-10-31T10:52:55.397Z,99.99
2017-10-31T10:54:05.696Z,99.99
2017-10-31T10:55:15.923Z,99.99
2017-10-31T10:56:26.233Z,99.99
2017-10-31T10:57:36.524Z,99.99
2017-10-31T10:58:46.547Z,99.99
2017-10-31T10:59:56.852Z,99.99
2017-10-31T11:01:07.428Z,99.99
2017-10-31T11:02:17.750Z,99.99
2017-10-31T11:03:27.725Z,99.99
2017-10-31T11:04:38.034Z,99.99
2017-10-31T11:05:48.345Z,99.99
2017-10-31T11:06:58.907Z,99.99
2017-10-31T11:08:09.206Z,99.99
2017-10-31T11:09:19.178Z,99.99
2017-10-31T11:10:29.505Z,99.99
2017-10-31T11:11:39.822Z,99.99
2017-10-31T11:12:50.373Z,99.99
2017-10-31T11:14:00.676Z,99.99
2017-10-31T11:15:10.356Z,99.99
2017-10-31T11:16:20.661Z,99.99
2017-10-31T11:17:30.312Z,99.99
2017-10-31T11:18:40.856Z,99.99
2017-10-31T11:19:50.817Z,99.99
2017-10-31T11:21:01.118Z,99.99
2017-10-31T11:22:11.081Z,99.99
2017-10-31T11:23:21.386Z,99.99
2017-10-31T11:24:31.613Z,99.99
2017-10-31T11:25:41.586Z,99.99
2017-10-31T11:26:51.603Z,99.99
2017-10-31T11:28:01.911Z,99.99
2017-10-31T11:29:12.229Z,99.99
2017-10-31T11:30:22.825Z,99.99
2017-10-31T11:31:33.124Z,99.99
2017-10-31T11:32:43.446Z,99.99
2017-10-31T11:33:53.736Z,99.99
2017-10-31T11:35:03.726Z,99.99
2017-10-31T11:36:14.272Z,99.99
2017-10-31T11:37:24.611Z,99.99
2017-10-31T11:38:34.915Z,99.99
2017-10-31T11:39:45.209Z,99.99
2017-10-31T11:40:55.502Z,99.99
2017-10-31T11:42:06.066Z,99.99
2017-10-31T11:43:16.591Z,99.99
2017-10-31T11:44:26.889Z,99.99
2017-10-31T11:45:37.215Z,99.99
2017-10-31T11:46:47.507Z,99.99
2017-10-31T11:47:57.753Z,99.99
2017-10-31T11:49:08.079Z,99.99
2017-10-31T11:50:18.047Z,99.99
2017-10-31T11:51:28.023Z,99.99
2017-10-31T11:52:38.318Z,99.99
2017-10-31T11:53:48.601Z,99.99
2017-10-31T11:54:58.897Z,99.99
2017-10-31T11:56:09.196Z,99.99
2017-10-31T11:57:18.842Z,99.99
2017-10-31T11:58:29.126Z,99.99
2017-10-31T11:59:39.356Z,99.99
2017-10-31T12:00:49.329Z,99.99
2017-10-31T12:01:59.304Z,99.99
2017-10-31T12:03:09.287Z,99.99
2017-10-31T12:04:19.586Z,99.99
2017-10-31T12:05:29.160Z,99.99
2017-10-31T12:06:39.458Z,99.99
2017-10-31T12:07:49.761Z,99.99
2017-10-31T12:09:00.098Z,99.99
2017-10-31T12:10:10.400Z,99.99
2017-10-31T12:11:20.950Z,99.99
2017-10-31T12:12:31.253Z,99.99
2017-10-31T12:13:40.897Z,99.99
2017-10-31T12:14:51.199Z,99.99
2017-10-31T12:16:01.175Z,99.99
2017-10-31T12:17:11.765Z,99.99
2017-10-31T12:18:21.727Z,99.99
2017-10-31T12:19:31.736Z,99.99
2017-10-31T12:20:41.714Z,99.99
2017-10-31T12:21:51.691Z,99.99
2017-10-31T12:23:02.239Z,99.99
2017-10-31T12:24:12.207Z,99.99
2017-10-31T12:25:22.499Z,99.99
2017-10-31T12:26:32.478Z,99.99
2017-10-31T12:27:42.780Z,99.99
2017-10-31T12:28:53.323Z,99.99
2017-10-31T12:30:03.620Z,99.99
2017-10-31T12:31:13.924Z,99.99
2017-10-31T12:32:24.231Z,99.99
2017-10-31T12:33:34.204Z,99.99
2017-10-31T12:34:44.740Z,99.99
2017-10-31T12:35:54.395Z,99.99
2017-10-31T12:37:04.375Z,99.99
2017-10-31T12:38:14.710Z,99.99
2017-10-31T12:39:25.242Z,99.99
2017-10-31T12:40:35.788Z,99.99
2017-10-31T12:41:45.751Z,99.99
2017-10-31T12:42:56.062Z,99.99
2017-10-31T12:44:06.064Z,99.99
2017-10-31T12:45:16.039Z,99.99
2017-10-31T12:46:25.979Z,99.99
2017-10-31T12:47:35.952Z,99.99
2017-10-31T12:48:46.271Z,99.99
2017-10-31T12:49:56.586Z,99.99
2017-10-31T12:51:06.892Z,99.99
2017-10-31T12:52:17.104Z,99.99
2017-10-31T12:53:27.421Z,99.99
2017-10-31T12:54:37.393Z,99.99
2017-10-31T12:55:47.689Z,99.99
2017-10-31T12:56:57.666Z,99.99
2017-10-31T12:58:08.222Z,99.98
2017-10-31T12:59:18.522Z,99.99
2017-10-31T13:00:28.886Z,99.99
2017-10-31T13:01:38.860Z,99.99
2017-10-31T13:02:49.156Z,99.99
2017-10-31T13:03:59.700Z,99.99
2017-10-31T13:05:09.988Z,99.99
2017-10-31T13:06:20.289Z,99.99
2017-10-31T13:07:30.586Z,99.99
2017-10-31T13:08:40.878Z,99.99
2017-10-31T13:09:50.440Z,99.99
2017-10-31T13:11:00.745Z,99.99
2017-10-31T13:12:11.033Z,99.99
2017-10-31T13:13:21.320Z,99.99
2017-10-31T13:14:31.623Z,99.99
2017-10-31T13:15:41.573Z,99.99
2017-10-31T13:16:51.876Z,99.99
2017-10-31T13:18:02.185Z,99.99
2017-10-31T13:19:11.841Z,99.99
2017-10-31T13:20:22.161Z,99.99
2017-10-31T13:21:32.716Z,99.99
2017-10-31T13:22:43.040Z,99.99
2017-10-31T13:23:53.358Z,99.99
2017-10-31T13:25:03.339Z,99.99
2017-10-31T13:26:13.665Z,99.99
2017-10-31T13:27:24.202Z,99.99
2017-10-31T13:28:34.497Z,99.99
2017-10-31T13:29:44.134Z,99.99
2017-10-31T13:30:53.793Z,99.99
2017-10-31T13:32:03.760Z,99.99
2017-10-31T13:33:14.312Z,99.99
2017-10-31T13:34:24.596Z,99.88
2017-10-31T13:35:34.243Z,99.99
2017-10-31T13:36:44.540Z,99.99
2017-10-31T13:37:54.508Z,99.88
2017-10-31T13:39:05.070Z,99.99
2017-10-31T13:40:14.723Z,99.99
2017-10-31T13:41:25.054Z,99.99
2017-10-31T13:42:35.369Z,99.98
2017-10-31T13:43:45.354Z,99.99
2017-10-31T13:44:55.906Z,99.99
2017-10-31T13:46:06.231Z,99.99
2017-10-31T13:47:16.549Z,99.99
2017-10-31T13:48:26.839Z,99.99
2017-10-31T13:49:36.808Z,99.99
2017-10-31T13:50:46.716Z,99.99
2017-10-31T13:51:57.057Z,99.99
2017-10-31T13:53:07.366Z,99.99
2017-10-31T13:54:17.375Z,99.99
2017-10-31T13:55:27.361Z,99.99
2017-10-31T13:56:37.932Z,99.99
2017-10-31T13:57:47.584Z,99.99
2017-10-31T13:58:57.886Z,99.99
2017-10-31T14:00:08.201Z,99.99
2017-10-31T14:01:18.505Z,99.99
2017-10-31T14:02:28.728Z,99.99
2017-10-31T14:03:39.030Z,99.99
2017-10-31T14:04:49.337Z,99.99
2017-10-31T14:05:59.634Z,99.99
2017-10-31T14:07:09.615Z,99.99
2017-10-31T14:08:19.834Z,99.99
2017-10-31T14:09:29.812Z,99.99
2017-10-31T14:10:39.794Z,99.99
2017-10-31T14:11:50.109Z,99.99
2017-10-31T14:13:00.420Z,99.99
2017-10-31T14:14:10.641Z,99.99
2017-10-31T14:15:20.938Z,99.99
2017-10-31T14:16:31.237Z,99.99
2017-10-31T14:17:41.212Z,99.99
2017-10-31T14:18:51.180Z,99.99
2017-10-31T14:20:01.739Z,99.99
2017-10-31T14:21:11.709Z,99.99
2017-10-31T14:22:21.999Z,99.99
2017-10-31T14:23:32.322Z,99.99
2017-10-31T14:24:42.620Z,99.99
2017-10-31T14:25:52.835Z,99.99
2017-10-31T14:27:03.145Z,99.99
2017-10-31T14:28:13.146Z,99.99
2017-10-31T14:29:23.135Z,99.99
2017-10-31T14:30:33.442Z,99.99
2017-10-31T14:31:44.032Z,99.99
2017-10-31T14:32:54.344Z,99.99
2017-10-31T14:34:04.647Z,99.99
2017-10-31T14:35:14.957Z,99.99
2017-10-31T14:36:25.250Z,99.99
2017-10-31T14:37:35.485Z,99.99
2017-10-31T14:38:45.473Z,99.99
2017-10-31T14:39:55.769Z,99.99
2017-10-31T14:41:05.746Z,99.99
2017-10-31T14:42:15.728Z,99.99
2017-10-31T14:43:25.949Z,99.99
2017-10-31T14:44:36.256Z,99.99
2017-10-31T14:45:46.556Z,99.99
2017-10-31T14:46:56.876Z,99.99
2017-10-31T14:48:07.175Z,99.99
2017-10-31T14:49:17.734Z,99.99
2017-10-31T14:50:27.376Z,99.99
2017-10-31T14:51:37.351Z,99.99
2017-10-31T14:52:47.322Z,99.99
2017-10-31T14:53:57.277Z,99.99
2017-10-31T14:55:07.501Z,99.99
2017-10-31T14:56:17.484Z,99.99
2017-10-31T14:57:27.135Z,99.99
2017-10-31T14:58:37.435Z,99.99
2017-10-31T14:59:47.407Z,99.99
2017-10-31T15:00:57.957Z,99.99
2017-10-31T15:02:07.935Z,99.99
2017-10-31T15:03:17.914Z,99.99